Blue Oak Ranch Reserve, California Weather observations

Data are for 10 minute period ending at time listed.
 Day   Time   Solar   Ave.   Ave.  Ave.  Vector  Max.   Baro.   Total    
  of    of     Rad.   Air    Rel.  Wind   Wind   Wind  Press.  Precip.   
Year   Day            Temp.  Hum.  Speed  Dir.   Gust                    
2017   (PST)  Kw/m2    F      %     mph   deg.    mph    mb.     in.     
-------------------------------------------------------------------------
  17    6:10   0.00   33.6    89    0.7   293     2.6   949.8    0.00 
  17    6:20   0.00   33.3    88    1.4    96     3.8   949.7    0.00 
  17    6:30   0.00   32.2    91    1.2    46     3.4   949.6    0.00 
  17    6:40   0.00   32.1    91    1.9   285     3.7   949.7    0.00 
  17    6:50   0.00   32.8    89    2.1    55     3.5   949.8    0.00 
  17    7:00   0.00   33.1    86    2.9   309     5.8   949.9    0.00 
  17    7:10   0.01   33.0    86    2.5   293     6.2   950.2    0.00 
  17    7:20   0.01   33.4    84    2.6    44     4.5   950.3    0.00 
  17    7:30   0.01   33.3    84    2.4   302     3.8   950.3    0.00 
  17    7:40   0.03   32.6    88    1.3    73     3.5   950.1    0.00 
  17    7:50   0.04   33.3    87    3.3    83     6.5   949.7    0.00 
  17    8:00   0.06   34.4    87    4.9    78     8.9   949.1    0.00 
  17    8:10   0.08   40.8    61    2.5   104     6.3   948.8    0.00 
  17    8:20   0.11   45.2    54    4.2   143     8.4   948.9    0.00 
  17    8:30   0.13   45.4    54    4.1   135     6.9   949.1    0.00 
  17    8:40   0.12   44.9    59    4.5   284     7.0   949.6    0.00 
  17    8:50   0.13   45.5    56    2.1   145     6.7   950.2    0.00 
  17    9:00   0.12   45.6    60    1.2    45     2.6   950.6    0.00 
  17    9:10   0.13   46.3    57    5.0   309     9.9   951.0    0.00 
  17    9:20   0.16   47.1    56    4.2   301     8.1   951.3    0.00 
  17    9:30   0.17   47.2    58    3.7   278     5.6   951.6    0.00 
  17    9:40   0.18   46.6    61    5.7   287     8.0   951.7    0.00 
  17    9:50   0.25   46.7    61    6.1   290     8.7   951.9    0.00 
  17   10:00   0.23   47.8    63    7.9   286    11.4   952.3    0.00 
  17   10:10   0.22   47.3    63    4.7   296    11.8   952.5    0.00 
  17   10:20   0.22   47.4    64    2.7   122     5.0   951.7    0.00 
  17   10:30   0.22   47.3    66    2.2   170     4.2   951.5    0.00 
  17   10:40   0.29   49.3    64    1.5   182     2.9   951.6    0.00 
  17   10:50   0.32   50.6    61    0.6   162     2.5   951.9    0.00 
  17   11:00   0.30   51.0    61    2.5   144     3.6   951.5    0.00 
  17   11:10   0.35   51.4    56    1.0   168     3.1   951.3    0.00 
  17   11:20   0.37   54.4    43    1.6   161     3.5   951.2    0.00 
  17   11:30   0.44   54.4    44    2.9   170     5.3   950.8    0.00 
  17   11:40   0.48   55.2    39    3.8   152     7.3   950.6    0.00 
  17   11:50   0.52   55.9    35    4.1   171     8.3   950.6    0.00 
  17   12:00   0.44   57.0    33    3.6   175     7.4   950.7    0.00 
  17   12:10   0.53   57.0    34    2.8   189     7.2   950.7    0.00 
  17   12:20   0.44   58.2    35    4.5   233     7.1   950.5    0.00 
  17   12:30   0.40   57.9    36    3.9   227     6.8   950.4    0.00 
  17   12:40   0.45   57.8    35    3.2   220     4.9   950.2    0.00 
  17   12:50   0.38   58.4    35    2.5   204     5.3   949.9    0.00 
  17   13:00   0.34   59.1    36    3.7   221     6.0   949.9    0.00 
  17   13:10   0.53   60.2    34    3.6   247     6.1   949.9    0.00 
  17   13:20   0.50   59.5    40    5.6   233     9.2   950.0    0.00 
  17   13:30   0.52   57.1    47    3.2   237     6.0   949.8    0.00 
  17   13:40   0.53   59.3    34    2.3   230     4.8   949.6    0.00 
  17   13:50   0.52   60.2    31    3.7   237     5.9   949.5    0.00 
  17   14:00   0.50   59.9    31    3.9   228     8.3   949.7    0.00 
  17   14:10   0.49   59.3    45    5.7   253     9.6   950.0    0.00 
  17   14:20   0.47   58.6    47    4.7   261     7.2   950.1    0.00 
  17   14:30   0.44   58.0    44    4.4   232     6.2   950.0    0.00 
  17   14:40   0.39   57.5    49    4.7   247     6.9   950.0    0.00 
  17   14:50   0.33   55.5    54    4.7   266     8.7   950.1    0.00 
  17   15:00   0.26   53.7    53    1.6   209     3.3   949.9    0.00 
  17   15:10   0.21   54.4    53    0.7   239     2.5   949.8    0.00 
  17   15:20   0.17   55.1    54    0.4   171     2.9   949.7    0.00 
  17   15:30   0.17   54.8    56    2.4   174     6.1   949.8    0.00 
  17   15:40   0.14   54.1    55    3.4   195     8.7   949.9    0.00 
  17   15:50   0.15   53.9    58    3.3   225     6.4   950.1    0.00 
  17   16:00   0.12   52.7    63    1.9   255     5.8   950.2    0.00 
  17   16:10   0.10   52.4    62    0.0    85     0.1   950.3    0.00 
  17   16:20   0.11   52.4    61    0.5    95     3.1   950.4    0.00 
  17   16:30   0.10   52.6    58    1.0   145     3.2   950.4    0.00 
  17   16:40   0.06   52.3    56    1.3   158     3.8   950.6    0.00 
  17   16:50   0.04   51.3    58    0.8   181     2.8   950.8    0.00 
  17   17:00   0.03   50.4    60    0.6   214     3.2   951.0    0.00 
  17   17:10   0.01   49.1    65    1.3   288     2.5   951.3    0.00 
  17   17:20   0.01   47.2    70    0.8    61     2.6   951.4    0.00 
  17   17:30   0.00   45.6    72    1.3    74     2.9   951.5    0.00 
  17   17:40   0.00   44.2    77    1.0    85     2.9   951.5    0.00 
  17   17:50   0.00   43.7    76    2.3    67     5.4   951.4    0.00 
  17   18:00   0.00   43.2    79    1.9   300     4.5   951.5    0.00 
  17   18:10   0.00   42.7    77    0.3    74     1.3   951.4    0.00 
  17   18:20   0.00   42.7    80    1.9   271     3.9   951.5    0.00 
  17   18:30   0.00   42.3    79    0.6   298     2.0   951.6    0.00 
  17   18:40   0.00   43.1    74    1.1    41     2.2   951.5    0.00 
  17   18:50   0.00   42.5    78    1.6   289     3.2   951.5    0.00 
  17   19:00   0.00   42.2    77    1.3   330     2.3   951.5    0.00 
  17   19:10   0.00   42.2    76    0.7    60     2.2   951.6    0.00 
  17   19:20   0.00   42.0    76    0.5   294     1.9   951.6    0.00 
  17   19:30   0.00   42.0    76    0.2    51     1.9   951.6    0.00 
  17   19:40   0.00   41.8    78    0.6    71     1.8   951.6    0.00 
  17   19:50   0.00   41.7    78    0.4    60     2.2   951.6    0.00 
  17   20:00   0.00   42.0    76    1.7    67     2.9   951.5    0.00 
  17   20:10   0.00   41.8    78    1.2   307     3.5   951.8    0.00 
  17   20:20   0.00   42.5    75    1.9   283     3.6   951.9    0.00 
  17   20:30   0.00   42.2    77    1.5    80     3.4   952.1    0.00 
  17   20:40   0.00   42.4    75    2.0    69     3.6   952.1    0.00 
  17   20:50   0.00   42.2    77    2.0    77     3.6   951.9    0.00 
  17   21:00   0.00   42.3    77    0.7    78     2.3   951.8    0.00 
  17   21:10   0.00   42.4    76    1.6   102     3.2   951.8    0.00 
  17   21:20   0.00   43.1    74    1.7    95     3.1   951.8    0.00 
  17   21:30   0.00   43.2    75    2.2   112     4.6   951.5    0.00 
  17   21:40   0.00   42.9    75    0.6   268     1.9   951.4    0.00 
  17   21:50   0.00   43.7    70    0.1   113     1.1   951.4    0.00 
  17   22:00   0.00   44.6    66    1.2    65     2.5   951.4    0.00 
  17   22:10   0.00   44.7    66    1.3    67     2.6   951.4    0.00 
  17   22:20   0.00   45.5    64    1.3    66     3.3   951.3    0.00 
  17   22:30   0.00   44.8    66    1.1    66     2.3   951.3    0.00 
  17   22:40   0.00   45.0    66    0.1   236     1.0   951.3    0.00 
  17   22:50   0.00   45.1    65    0.3   188     3.0   951.2    0.00 
  17   23:00   0.00   46.3    54    1.4    96     3.9   951.1    0.00 
  17   23:10   0.00   46.7    57    1.3    58     3.0   950.9    0.00 
  17   23:20   0.00   46.1    57    2.2   203     5.8   950.9    0.00 
  17   23:30   0.00   47.2    51    2.3    74     4.8   950.9    0.00 
  17   23:40   0.00   47.5    52    1.8    71     3.6   950.9    0.00 
  17   23:50   0.00   46.9    55    1.8    74     3.7   950.9    0.00 
  18    0:00   0.00   46.8    54    2.4    82     3.7   950.5    0.00 
  18    0:10   0.00   47.7    48    2.1    23     5.2   950.5    0.00 
  18    0:20   0.00   47.2    49    1.7   250     5.0   950.9    0.00 
  18    0:30   0.00   47.2    51    1.7    67     4.0   950.7    0.00 
  18    0:40   0.00   46.9    53    2.6    72     6.4   950.7    0.00 
  18    0:50   0.00   46.0    55    1.0    92     2.5   950.6    0.00 
  18    1:00   0.00   46.2    54    0.7    25     2.3   950.5    0.00 
  18    1:10   0.00   46.4    53    1.4    79     3.1   950.3    0.00 
  18    1:20   0.00   46.2    54    0.8    88     2.2   950.1    0.00 
  18    1:30   0.00   46.1    54    0.4   342     1.5   950.3    0.00 
  18    1:40   0.00   45.7    54    2.2    65     4.8   950.4    0.00 
  18    1:50   0.00   44.8    59    1.4    80     3.1   950.4    0.00 
  18    2:00   0.00   43.8    61    1.7   329     3.9   950.3    0.00 
  18    2:10   0.00   43.2    60    1.6   292     3.9   950.5    0.00 
  18    2:20   0.00   43.0    58    0.6    73     1.6   950.5    0.00 
  18    2:30   0.00   42.5    61    2.1    67     4.1   950.5    0.00 
  18    2:40   0.00   41.8    63    1.5    70     4.3   950.4    0.00 
  18    2:50   0.00   42.9    60    2.6    83     6.7   950.1    0.00 
  18    3:00   0.00   47.2    49    1.9    82     5.9   950.1    0.00 
  18    3:10   0.00   46.8    50    1.0   188     3.2   950.0    0.00 
  18    3:20   0.00   47.5    49    3.4   194     6.6   950.0    0.00 
  18    3:30   0.00   47.1    53    2.9   182     7.6   950.2    0.00 
  18    3:40   0.00   46.6    55    2.3   145     5.7   950.3    0.00 
  18    3:50   0.00   46.2    57    0.9   256     3.1   950.4    0.00 
  18    4:00   0.00   46.6    56    1.7   188     4.7   950.6    0.00 
  18    4:10   0.00   46.5    57    2.4   171     4.3   950.6    0.00 
  18    4:20   0.00   46.2    58    1.7   151     5.3   950.5    0.00 
  18    4:30   0.00   46.2    60    2.1   148     6.5   950.7    0.00 
  18    4:40   0.00   46.0    63    3.2   159     6.1   950.8    0.00 
  18    4:50   0.00   45.6    65    2.2   163     4.2   950.4    0.00 
  18    5:00   0.00   45.3    67    1.8   105     3.8   950.4    0.00 
  18    5:10   0.00   45.1    68    1.5   161     3.9   950.4    0.00 
  18    5:20   0.00   44.4    73    1.7   110     4.2   950.0    0.00 
  18    5:30   0.00   44.1    76    1.2   126     4.0   949.9    0.00 
  18    5:40   0.00   43.2    82    1.0    70     2.8   949.5    0.00 
  18    5:50   0.00   43.3    81    1.4   150     5.1   949.6    0.00 
  18    6:00   0.00   43.6    77    1.1    93     3.4   949.6    0.00 

Return to Blue Oak Ranch Reserve graphs page.


Western Regional Climate Center,wrcc@dri.edu